Time;durP1;ratioP1;P1;durP2;ratioP2;P2;SDS_P1;SDS_P2;PMS_P1;PMS_P2;Temp;Humidity;BMP_temperature;BMP_pressure;BME280_temperature;BME280_humidity;BME280_pressure;Samples;Min_cycle;Max_cycle;Signal;HPM_P1;HPM_P2
2023/04/08 00:01:34;;;;;;;1.98;0.85;;;11.90;63.40;;;;;;2482869;55;20980;-70
2023/04/08 00:04:00;;;;;;;2.50;0.93;;;12.00;62.80;;;;;;2255848;56;20960;-70
2023/04/08 00:06:27;;;;;;;1.80;0.88;;;12.00;62.80;;;;;;2482434;55;20977;-70
2023/04/08 00:08:53;;;;;;;2.90;1.20;;;12.00;62.80;;;;;;2253169;57;21040;-70
2023/04/08 00:11:20;;;;;;;2.33;1.08;;;12.00;62.80;;;;;;2280952;56;20934;-70
2023/04/08 00:13:47;;;;;;;1.77;0.70;;;12.00;62.80;;;;;;2281153;56;20950;-71
2023/04/08 00:16:13;;;;;;;1.85;0.90;;;12.00;62.90;;;;;;2280379;56;20945;-70
2023/04/08 00:18:40;;;;;;;2.00;0.80;;;12.00;62.90;;;;;;2279922;56;20977;-70
2023/04/08 00:21:07;;;;;;;1.95;0.95;;;12.00;62.90;;;;;;2279825;56;20945;-69
2023/04/08 00:23:33;;;;;;;2.17;1.12;;;12.00;62.90;;;;;;2513086;55;21986;-71
2023/04/08 00:25:59;;;;;;;2.28;1.15;;;12.00;62.90;;;;;;2482238;55;21013;-71
2023/04/08 00:28:26;;;;;;;3.50;1.37;;;12.00;62.90;;;;;;2513049;55;21400;-71
2023/04/08 00:30:52;;;;;;;2.25;1.08;;;12.00;63.00;;;;;;2280536;56;21743;-69
2023/04/08 00:33:19;;;;;;;1.73;0.85;;;12.00;63.00;;;;;;2280104;56;20934;-71
2023/04/08 00:35:45;;;;;;;2.37;1.15;;;12.00;63.00;;;;;;2512779;55;21407;-71
2023/04/08 00:38:11;;;;;;;2.00;0.90;;;12.00;63.00;;;;;;2279865;56;20973;-70
2023/04/08 00:40:38;;;;;;;1.98;1.02;;;12.00;63.00;;;;;;2512083;55;20938;-71
2023/04/08 00:43:04;;;;;;;3.20;1.20;;;12.00;63.00;;;;;;2276401;56;20973;-69
2023/04/08 00:45:31;;;;;;;2.20;0.95;;;12.00;63.00;;;;;;2279645;56;21278;-71
2023/04/08 00:47:57;;;;;;;2.62;1.27;;;12.00;63.00;;;;;;2279441;56;21909;-70
2023/04/08 00:50:23;;;;;;;3.30;1.37;;;12.00;63.00;;;;;;2512182;55;21438;-70
2023/04/08 00:52:50;;;;;;;2.62;1.40;;;12.00;63.00;;;;;;2511738;55;21832;-70
2023/04/08 00:55:17;;;;;;;2.42;1.10;;;12.00;63.00;;;;;;2279276;56;20954;-71
2023/04/08 00:57:44;;;;;;;2.17;1.02;;;12.10;63.20;;;;;;2279309;56;21162;-70
2023/04/08 01:00:11;;;;;;;2.00;0.90;;;12.10;63.10;;;;;;2511721;55;20942;-70
2023/04/08 01:02:45;;;;;;;3.17;1.50;;;12.10;63.10;;;;;;2511763;55;20951;-70
2023/04/08 01:05:20;;;;;;;3.15;1.10;;;12.10;63.00;;;;;;2511807;55;20949;-69
2023/04/08 01:07:47;;;;;;;2.62;1.20;;;12.00;62.90;;;;;;2278948;55;25621;-70
2023/04/08 01:10:21;;;;;;;2.45;1.20;;;12.10;63.10;;;;;;2511115;55;21029;-70
2023/04/08 01:12:58;;;;;;;2.05;1.00;;;12.00;62.90;;;;;;2279019;56;21819;-71
2023/04/08 01:15:28;;;;;;;2.22;0.93;;;12.00;63.00;;;;;;2480787;55;20938;-71
2023/04/08 01:17:55;;;;;;;2.70;1.20;;;12.10;63.00;;;;;;2278252;56;20993;-71
2023/04/08 01:20:23;;;;;;;3.42;1.50;;;12.10;63.10;;;;;;2274247;56;20981;-69
2023/04/08 01:23:26;;;;;;;2.33;1.25;;;12.00;63.00;;;;;;2251964;56;20937;-69
2023/04/08 01:25:54;;;;;;;3.90;1.70;;;12.10;62.80;;;;;;2253539;56;21450;-71
2023/04/08 01:28:22;;;;;;;2.50;1.00;;;12.00;63.10;;;;;;2253151;56;21004;-71
2023/04/08 01:30:48;;;;;;;2.28;1.15;;;12.10;63.20;;;;;;2479474;55;21003;-71
2023/04/08 01:33:15;;;;;;;2.33;1.20;;;12.10;63.20;;;;;;2252584;56;20972;-70
2023/04/08 01:35:42;;;;;;;2.53;1.00;;;12.10;63.20;;;;;;2253364;56;20948;-70
2023/04/08 01:38:11;;;;;;;2.17;0.90;;;12.00;63.10;;;;;;2253247;56;20972;-70
2023/04/08 01:40:37;;;;;;;2.65;1.17;;;12.10;63.30;;;;;;2241025;56;21270;-70
2023/04/08 01:43:04;;;;;;;2.53;1.23;;;12.00;63.10;;;;;;2221534;57;20976;-70
2023/04/08 01:45:30;;;;;;;2.40;1.20;;;12.10;63.20;;;;;;2237061;57;22030;-70
2023/04/08 01:47:57;;;;;;;2.42;1.23;;;12.00;63.10;;;;;;2253454;56;21028;-71
2023/04/08 01:50:23;;;;;;;2.10;1.02;;;12.10;63.20;;;;;;2480668;55;20960;-71
2023/04/08 01:52:52;;;;;;;2.10;1.00;;;12.10;63.20;;;;;;2480938;55;20971;-71
2023/04/08 01:55:18;;;;;;;2.12;1.00;;;12.00;63.10;;;;;;2480491;55;21000;-71
2023/04/08 01:57:48;;;;;;;1.98;0.90;;;12.10;63.30;;;;;;2253342;56;21000;-70
2023/04/08 02:00:15;;;;;;;2.08;0.90;;;12.00;63.10;;;;;;2253733;56;20968;-70
2023/04/08 02:02:42;;;;;;;2.00;0.80;;;12.00;63.10;;;;;;2486497;55;21284;-71
2023/04/08 02:05:09;;;;;;;2.00;0.95;;;12.00;63.20;;;;;;2251727;57;20962;-69
2023/04/08 02:07:35;;;;;;;2.20;1.00;;;12.10;63.30;;;;;;2254237;57;20948;-71
2023/04/08 02:10:02;;;;;;;2.08;0.95;;;12.10;63.20;;;;;;2229094;57;21537;-71
2023/04/08 02:12:29;;;;;;;2.15;1.08;;;12.00;63.10;;;;;;2480051;55;21055;-71
2023/04/08 02:14:56;;;;;;;2.83;1.35;;;12.10;63.20;;;;;;2479325;55;21060;-72
2023/04/08 02:18:13;;;;;;;2.70;1.10;;;12.10;63.20;;;;;;2242674;56;21075;-70
2023/04/08 02:20:45;;;;;;;2.40;1.12;;;12.00;62.60;;;;;;2245857;56;20988;-71
2023/04/08 02:23:18;;;;;;;3.00;1.50;;;12.00;63.10;;;;;;2479773;55;21016;-71
2023/04/08 02:25:45;;;;;;;2.67;1.20;;;12.10;63.30;;;;;;2479831;55;21008;-70
2023/04/08 02:28:16;;;;;;;3.15;1.48;;;12.10;63.30;;;;;;2251974;56;21036;-71
2023/04/08 02:30:48;;;;;;;3.12;1.15;;;12.10;63.30;;;;;;2231912;56;21028;-70
2023/04/08 02:33:14;;;;;;;3.60;1.62;;;12.00;63.10;;;;;;2475357;55;20965;-71
2023/04/08 02:35:40;;;;;;;3.53;1.50;;;12.00;63.10;;;;;;2252516;56;21768;-70
2023/04/08 02:38:08;;;;;;;2.08;1.10;;;12.00;63.20;;;;;;2253474;57;21056;-71
2023/04/08 02:40:37;;;;;;;2.25;1.08;;;12.00;63.20;;;;;;2253414;57;20968;-71
2023/04/08 02:43:04;;;;;;;3.10;1.45;;;12.00;63.30;;;;;;2253070;57;20952;-71
2023/04/08 02:45:31;;;;;;;2.75;1.12;;;12.00;63.30;;;;;;2479689;55;20959;-70
2023/04/08 02:47:59;;;;;;;2.87;1.45;;;12.00;63.30;;;;;;2228635;56;20959;-71
2023/04/08 02:50:25;;;;;;;3.03;1.40;;;12.00;63.20;;;;;;2479997;55;20968;-71
2023/04/08 02:52:51;;;;;;;2.47;1.30;;;12.00;63.20;;;;;;2253350;57;20928;-69
2023/04/08 02:55:18;;;;;;;3.00;1.25;;;12.00;63.20;;;;;;2480132;55;21029;-71
2023/04/08 02:57:47;;;;;;;2.58;1.33;;;12.00;63.80;;;;;;2480257;55;20964;-70
2023/04/08 03:00:15;;;;;;;2.80;1.45;;;12.00;63.10;;;;;;2252739;56;21774;-72
2023/04/08 03:02:45;;;;;;;2.28;1.10;;;12.00;63.20;;;;;;2247642;56;20978;-71
2023/04/08 03:05:12;;;;;;;2.05;1.05;;;11.80;63.10;;;;;;2232274;57;20942;-69
2023/04/08 03:07:38;;;;;;;2.60;1.20;;;12.00;63.30;;;;;;2233030;57;20990;-70
2023/04/08 03:10:05;;;;;;;2.35;1.10;;;12.00;63.30;;;;;;2232532;57;21430;-71
2023/04/08 03:12:32;;;;;;;2.15;1.10;;;11.90;63.20;;;;;;2454884;55;21026;-70
2023/04/08 03:14:59;;;;;;;2.50;1.10;;;11.90;63.20;;;;;;2231969;56;21009;-71
2023/04/08 03:17:25;;;;;;;2.10;0.90;;;11.90;63.20;;;;;;2454795;55;20970;-70
2023/04/08 03:19:51;;;;;;;2.80;1.23;;;11.90;63.10;;;;;;2454610;55;20962;-71
2023/04/08 03:22:18;;;;;;;2.28;1.15;;;11.90;63.20;;;;;;2454179;55;22169;-71
2023/04/08 03:24:45;;;;;;;2.40;1.20;;;11.90;63.20;;;;;;2232182;57;20942;-69
2023/04/08 03:27:11;;;;;;;2.20;1.08;;;11.90;63.30;;;;;;2231373;57;21405;-71
2023/04/08 03:29:38;;;;;;;2.67;1.20;;;11.90;63.30;;;;;;2232787;57;20942;-70
2023/04/08 03:32:07;;;;;;;2.10;1.08;;;11.90;63.30;;;;;;2230773;56;21417;-71
2023/04/08 03:34:34;;;;;;;2.90;1.30;;;11.90;63.30;;;;;;2242093;56;21000;-70
2023/04/08 03:37:01;;;;;;;2.37;1.15;;;11.90;63.30;;;;;;2231362;57;20999;-71
2023/04/08 03:39:27;;;;;;;2.50;1.30;;;11.90;63.30;;;;;;2253517;56;21393;-69
2023/04/08 03:41:53;;;;;;;3.33;1.70;;;11.90;63.30;;;;;;2253003;56;21028;-71
2023/04/08 03:44:24;;;;;;;2.70;1.30;;;11.90;63.30;;;;;;2253226;56;21036;-71
2023/04/08 03:46:51;;;;;;;3.58;1.70;;;11.90;63.30;;;;;;2487131;55;21023;-70
2023/04/08 03:49:17;;;;;;;3.10;1.60;;;11.90;63.30;;;;;;2252064;57;21501;-71
2023/04/08 03:51:46;;;;;;;2.53;1.30;;;11.90;63.30;;;;;;2478647;55;20992;-69
2023/04/08 03:54:13;;;;;;;3.17;1.40;;;11.90;63.20;;;;;;2478971;55;21866;-71
2023/04/08 03:56:39;;;;;;;4.07;1.95;;;11.90;63.20;;;;;;2252476;57;22019;-69
2023/04/08 03:59:07;;;;;;;5.20;2.65;;;11.90;63.10;;;;;;2253062;56;21024;-71
2023/04/08 04:01:33;;;;;;;5.10;2.58;;;11.90;63.10;;;;;;2252835;56;20988;-70
2023/04/08 04:03:59;;;;;;;6.18;2.78;;;11.90;63.00;;;;;;2452329;55;21057;-71
2023/04/08 04:06:26;;;;;;;4.87;2.20;;;11.80;62.90;;;;;;2477152;55;20964;-69
2023/04/08 04:08:54;;;;;;;5.85;2.50;;;11.80;62.80;;;;;;2253606;56;20996;-70
2023/04/08 04:11:21;;;;;;;4.22;2.05;;;11.80;62.70;;;;;;2480230;55;20956;-71
2023/04/08 04:13:48;;;;;;;4.97;1.98;;;11.80;62.70;;;;;;2479278;55;20964;-70
2023/04/08 04:16:15;;;;;;;3.60;1.50;;;11.70;62.50;;;;;;2253229;56;21390;-69
2023/04/08 04:18:43;;;;;;;3.83;1.80;;;11.70;62.50;;;;;;2480832;55;21750;-71
2023/04/08 04:21:09;;;;;;;2.65;1.15;;;11.70;62.50;;;;;;2253478;56;21028;-71
2023/04/08 04:23:35;;;;;;;4.03;1.40;;;11.60;62.40;;;;;;2481130;55;21032;-71
2023/04/08 04:26:09;;;;;;;3.53;1.60;;;11.60;62.30;;;;;;2253764;56;20912;-71
2023/04/08 04:28:37;;;;;;;3.22;1.40;;;11.50;62.10;;;;;;2252784;56;21447;-70
2023/04/08 04:31:03;;;;;;;5.03;2.75;;;11.50;62.30;;;;;;2486681;55;20983;-71
2023/04/08 04:33:32;;;;;;;4.72;2.25;;;11.50;62.30;;;;;;2257923;56;21012;-70
2023/04/08 04:35:59;;;;;;;4.45;2.40;;;11.50;62.40;;;;;;2479483;55;20968;-71
2023/04/08 04:38:25;;;;;;;4.75;2.55;;;11.40;62.40;;;;;;2253269;56;20952;-71
2023/04/08 04:40:54;;;;;;;5.35;2.83;;;11.30;62.30;;;;;;2253477;56;21003;-70
2023/04/08 04:43:20;;;;;;;4.70;2.40;;;11.10;62.20;;;;;;2252680;56;21540;-70
2023/04/08 04:45:46;;;;;;;5.50;2.40;;;11.30;62.40;;;;;;2255612;57;21039;-69
2023/04/08 04:48:13;;;;;;;3.28;1.73;;;11.20;62.40;;;;;;2230338;56;21109;-69
2023/04/08 04:50:40;;;;;;;2.85;1.50;;;11.20;63.20;;;;;;2253629;57;21256;-69
2023/04/08 04:53:06;;;;;;;3.33;1.80;;;11.20;62.50;;;;;;2479862;55;21139;-71
2023/04/08 04:55:32;;;;;;;3.40;1.73;;;11.20;62.70;;;;;;2253031;56;21446;-70
2023/04/08 04:58:01;;;;;;;3.30;1.70;;;11.10;62.80;;;;;;2253523;56;20944;-71
2023/04/08 05:00:28;;;;;;;3.47;1.87;;;11.10;62.80;;;;;;2480675;55;20974;-71
2023/04/08 05:02:54;;;;;;;3.37;1.85;;;11.10;63.00;;;;;;2480835;55;21673;-70
2023/04/08 05:05:21;;;;;;;3.87;1.90;;;11.10;63.10;;;;;;2247392;56;20954;-70
2023/04/08 05:07:47;;;;;;;4.10;2.20;;;11.10;63.10;;;;;;2232569;57;22066;-70
2023/04/08 05:10:14;;;;;;;5.30;2.70;;;11.20;63.30;;;;;;2238471;57;20947;-70
2023/04/08 05:12:40;;;;;;;4.47;2.30;;;11.20;63.40;;;;;;2253608;56;21509;-70
2023/04/08 05:15:07;;;;;;;3.60;2.17;;;11.20;63.50;;;;;;2253943;56;21071;-69
2023/04/08 05:17:34;;;;;;;3.42;2.10;;;11.20;63.50;;;;;;2455281;55;20990;-69
2023/04/08 05:20:02;;;;;;;3.60;1.95;;;11.10;63.50;;;;;;2253527;56;20944;-69
2023/04/08 05:22:28;;;;;;;2.80;1.48;;;11.20;63.70;;;;;;2480751;55;20953;-71
2023/04/08 05:24:55;;;;;;;4.43;2.20;;;11.20;63.70;;;;;;2481043;55;21011;-70
2023/04/08 05:27:21;;;;;;;3.53;2.08;;;11.20;63.70;;;;;;2253655;56;20983;-69
2023/04/08 05:29:49;;;;;;;4.45;2.42;;;11.20;63.70;;;;;;2463140;55;20989;-71
2023/04/08 05:32:15;;;;;;;6.18;2.75;;;11.30;63.70;;;;;;2344964;55;7276059;-69
2023/04/08 05:34:42;;;;;;;5.28;2.72;;;11.30;63.80;;;;;;2452339;55;21011;-70
2023/04/08 05:37:09;;;;;;;4.40;2.40;;;11.30;63.90;;;;;;2461612;55;20941;-69
2023/04/08 05:39:35;;;;;;;4.85;1.90;;;11.30;63.80;;;;;;2461711;55;21821;-71
2023/04/08 05:42:02;;;;;;;5.18;2.37;;;11.30;63.80;;;;;;2237552;56;21009;-71
2023/04/08 05:44:31;;;;;;;5.30;2.70;;;11.40;63.90;;;;;;2237817;56;20995;-70
2023/04/08 05:47:01;;;;;;;6.68;3.28;;;11.40;63.90;;;;;;2461414;55;21812;-71
2023/04/08 05:49:29;;;;;;;6.87;3.55;;;11.40;63.90;;;;;;2231024;56;21041;-70
2023/04/08 05:51:55;;;;;;;8.27;3.78;;;11.50;64.10;;;;;;2459734;55;21691;-70
2023/04/08 05:54:21;;;;;;;6.87;3.10;;;11.50;64.10;;;;;;2461741;55;21003;-70
2023/04/08 05:56:49;;;;;;;7.75;3.58;;;11.50;64.20;;;;;;2461521;55;21025;-70
2023/04/08 05:59:15;;;;;;;6.50;3.42;;;11.50;64.20;;;;;;2238396;55;20973;-70
2023/04/08 06:01:41;;;;;;;5.90;2.97;;;11.50;64.10;;;;;;2237971;55;20993;-71
2023/04/08 06:04:08;;;;;;;5.68;2.70;;;11.60;64.20;;;;;;2248100;55;21103;-70
2023/04/08 06:06:37;;;;;;;10.77;4.82;;;11.60;64.10;;;;;;2463491;55;21044;-70
2023/04/08 06:09:04;;;;;;;9.45;4.62;;;11.60;64.10;;;;;;2237473;55;20946;-70
2023/04/08 06:11:31;;;;;;;9.25;3.92;;;11.60;64.10;;;;;;2238102;55;21021;-71
2023/04/08 06:13:57;;;;;;;8.63;4.47;;;11.60;64.10;;;;;;2237863;55;20960;-71
2023/04/08 06:16:26;;;;;;;6.47;3.25;;;11.70;64.20;;;;;;2244773;55;22161;-70
2023/04/08 06:18:53;;;;;;;6.05;3.10;;;11.70;64.30;;;;;;2462118;55;20946;-69
2023/04/08 06:21:20;;;;;;;6.20;2.67;;;11.70;64.20;;;;;;2459869;55;21037;-70
2023/04/08 06:23:47;;;;;;;5.40;2.50;;;11.70;64.30;;;;;;2243342;56;20993;-70
2023/04/08 06:26:13;;;;;;;3.95;2.12;;;11.70;65.00;;;;;;2237487;56;20979;-71
2023/04/08 06:28:41;;;;;;;3.67;1.80;;;11.80;64.40;;;;;;2461463;55;21036;-70
2023/04/08 06:31:07;;;;;;;4.12;2.08;;;11.80;64.40;;;;;;2452532;56;21003;-69
2023/04/08 06:33:34;;;;;;;3.42;1.83;;;11.80;64.40;;;;;;2461629;55;20955;-71
2023/04/08 06:36:01;;;;;;;3.17;1.62;;;11.80;64.30;;;;;;2240803;56;21026;-70
2023/04/08 06:38:28;;;;;;;3.78;1.90;;;11.90;64.40;;;;;;2237541;56;20991;-70
2023/04/08 06:40:55;;;;;;;2.92;1.60;;;11.90;64.40;;;;;;2453499;56;21475;-70
2023/04/08 06:43:21;;;;;;;3.08;1.75;;;12.00;64.50;;;;;;2240173;56;20994;-72
2023/04/08 06:45:49;;;;;;;4.07;2.00;;;12.00;64.50;;;;;;2461498;55;21424;-70
2023/04/08 06:48:18;;;;;;;5.60;2.37;;;12.00;64.50;;;;;;2461660;55;20855;-70
2023/04/08 06:50:45;;;;;;;4.00;2.12;;;12.00;64.50;;;;;;2235686;56;20943;-71
2023/04/08 06:53:11;;;;;;;5.00;2.42;;;12.10;64.50;;;;;;2460678;55;21034;-71
2023/04/08 06:55:37;;;;;;;3.67;2.10;;;12.10;64.40;;;;;;2461492;55;20975;-71
2023/04/08 06:58:04;;;;;;;4.03;2.40;;;12.10;64.40;;;;;;2460184;55;21031;-70
2023/04/08 07:00:30;;;;;;;4.95;2.42;;;12.00;64.20;;;;;;2236771;56;20903;-71
2023/04/08 07:02:59;;;;;;;4.00;2.35;;;12.20;64.50;;;;;;2237796;56;20946;-70
2023/04/08 07:05:26;;;;;;;4.18;2.10;;;12.20;64.50;;;;;;2237744;56;20966;-71
2023/04/08 07:07:52;;;;;;;3.75;2.10;;;12.20;64.60;;;;;;2461926;55;21019;-71
2023/04/08 07:10:19;;;;;;;3.70;2.08;;;12.30;64.60;;;;;;2461317;55;21392;-69
2023/04/08 07:12:45;;;;;;;3.58;2.00;;;12.30;64.70;;;;;;2237200;56;21481;-71
2023/04/08 07:15:12;;;;;;;3.70;2.37;;;12.30;64.70;;;;;;2236541;56;20987;-70
2023/04/08 07:17:41;;;;;;;4.95;2.70;;;12.40;64.80;;;;;;2461646;55;20941;-71
2023/04/08 07:20:11;;;;;;;3.47;2.22;;;12.40;64.90;;;;;;2237158;56;20962;-71
2023/04/08 07:22:37;;;;;;;4.10;2.42;;;12.50;65.10;;;;;;2460780;55;21423;-71
2023/04/08 07:25:04;;;;;;;5.53;3.03;;;12.50;65.00;;;;;;2467322;55;20929;-71
2023/04/08 07:27:35;;;;;;;5.45;3.10;;;12.50;64.90;;;;;;2237520;56;20948;-71
2023/04/08 07:30:05;;;;;;;5.60;2.70;;;12.60;64.90;;;;;;2237396;56;20983;-70
2023/04/08 07:32:32;;;;;;;3.72;2.25;;;12.70;64.70;;;;;;2460943;55;21305;-70
2023/04/08 07:35:01;;;;;;;4.35;2.58;;;12.70;64.70;;;;;;2237614;56;20986;-71
2023/04/08 07:37:27;;;;;;;4.40;2.50;;;12.70;64.70;;;;;;2461148;55;20958;-71
2023/04/08 07:39:56;;;;;;;4.12;2.37;;;12.80;64.60;;;;;;2459568;55;21011;-70
2023/04/08 07:42:25;;;;;;;4.65;2.45;;;12.80;64.60;;;;;;2453875;55;21530;-70
2023/04/08 07:44:52;;;;;;;4.20;2.35;;;12.90;64.70;;;;;;2467395;55;21756;-71
2023/04/08 07:47:19;;;;;;;4.60;2.80;;;12.90;64.70;;;;;;2460855;55;21035;-71
2023/04/08 07:49:48;;;;;;;4.75;2.62;;;13.00;64.80;;;;;;2460232;55;20938;-70
2023/04/08 07:52:15;;;;;;;5.20;3.28;;;13.00;64.60;;;;;;2460327;55;20957;-69
2023/04/08 07:54:41;;;;;;;5.12;3.20;;;13.10;64.60;;;;;;2237334;56;21017;-71
2023/04/08 07:57:07;;;;;;;5.95;3.35;;;13.10;64.60;;;;;;2454386;55;21048;-71
2023/04/08 07:59:34;;;;;;;5.57;3.40;;;13.10;64.50;;;;;;2225990;56;20959;-71
2023/04/08 08:02:01;;;;;;;6.57;3.85;;;13.20;64.60;;;;;;2460923;55;20953;-70
2023/04/08 08:04:27;;;;;;;5.35;3.20;;;13.20;64.60;;;;;;2457399;55;21892;-71
2023/04/08 08:06:54;;;;;;;5.45;3.10;;;13.30;64.60;;;;;;2456062;55;21450;-70
2023/04/08 08:09:20;;;;;;;5.20;3.40;;;13.30;64.60;;;;;;2237093;55;21476;-71
2023/04/08 08:11:46;;;;;;;6.45;3.47;;;13.40;64.70;;;;;;2460764;55;20938;-71
2023/04/08 08:14:14;;;;;;;5.78;3.72;;;13.40;64.60;;;;;;2246663;55;20944;-69
2023/04/08 08:16:41;;;;;;;6.10;3.33;;;13.40;64.50;;;;;;2490079;54;21030;-72
2023/04/08 08:19:07;;;;;;;5.47;3.50;;;13.50;64.70;;;;;;2490382;54;21048;-71
2023/04/08 08:21:36;;;;;;;6.53;3.60;;;13.50;64.70;;;;;;2484369;55;21079;-71
2023/04/08 08:24:03;;;;;;;17.05;7.87;;;13.60;64.70;;;;;;2261076;56;20927;-71
2023/04/08 08:26:29;;;;;;;14.23;7.55;;;13.60;64.70;;;;;;2491664;54;20980;-71
2023/04/08 08:28:56;;;;;;;11.95;5.72;;;13.70;64.90;;;;;;2491346;54;20962;-71
2023/04/08 08:31:27;;;;;;;11.05;6.22;;;13.70;64.90;;;;;;2262398;56;22096;-71
2023/04/08 08:33:57;;;;;;;8.18;4.80;;;13.80;65.00;;;;;;2491190;54;20952;-72
2023/04/08 08:36:23;;;;;;;7.72;4.85;;;13.80;64.90;;;;;;2491083;54;20959;-71
2023/04/08 08:38:52;;;;;;;7.75;4.80;;;13.90;64.90;;;;;;2491310;54;20968;-72
2023/04/08 08:41:19;;;;;;;8.35;5.20;;;13.90;64.80;;;;;;2259359;56;21052;-69
2023/04/08 08:43:45;;;;;;;7.93;4.65;;;14.00;64.80;;;;;;2490514;54;20960;-69
2023/04/08 08:46:16;;;;;;;7.57;5.12;;;14.00;64.80;;;;;;2262778;56;21060;-69
2023/04/08 08:48:42;;;;;;;7.93;5.20;;;14.10;64.90;;;;;;2485247;54;21011;-71
2023/04/08 08:51:09;;;;;;;9.00;5.60;;;14.20;64.90;;;;;;2490960;54;20970;-71
2023/04/08 08:53:37;;;;;;;8.23;5.53;;;14.20;64.80;;;;;;2491023;54;20955;-69
2023/04/08 08:56:07;;;;;;;7.78;4.95;;;14.20;64.70;;;;;;2491085;54;21232;-69
2023/04/08 08:58:43;;;;;;;7.68;5.22;;;14.30;64.70;;;;;;2486127;54;20964;-70
2023/04/08 09:01:34;;;;;;;7.45;4.72;;;14.30;64.80;;;;;;2486644;54;21098;-69
2023/04/08 09:04:07;;;;;;;6.93;4.75;;;14.40;64.60;;;;;;2490624;54;20951;-68
2023/04/08 09:06:35;;;;;;;8.85;5.45;;;14.50;65.00;;;;;;2490659;54;20963;-70
2023/04/08 09:09:03;;;;;;;8.05;5.68;;;14.50;64.90;;;;;;2491218;54;20931;-70
2023/04/08 09:11:29;;;;;;;7.78;5.57;;;14.60;64.90;;;;;;2262059;56;21035;-70
2023/04/08 09:13:55;;;;;;;8.18;5.30;;;14.50;64.80;;;;;;2491085;54;20930;-70
2023/04/08 09:16:26;;;;;;;7.47;4.45;;;14.70;64.90;;;;;;2485509;54;20952;-70
2023/04/08 09:18:52;;;;;;;8.35;5.50;;;14.70;64.70;;;;;;2487806;54;21082;-70
2023/04/08 09:21:21;;;;;;;7.32;5.07;;;14.80;64.70;;;;;;2490704;54;20928;-71
2023/04/08 09:23:50;;;;;;;9.45;5.72;;;14.90;64.80;;;;;;2261963;56;21083;-70
2023/04/08 09:26:18;;;;;;;7.12;5.20;;;14.90;64.70;;;;;;2490660;54;20987;-70
2023/04/08 09:29:06;;;;;;;7.40;4.90;;;15.00;64.70;;;;;;2490602;54;20959;-71
2023/04/08 09:31:40;;;;;;;7.93;4.93;;;15.00;64.30;;;;;;2261894;56;21038;-70
2023/04/08 09:34:22;;;;;;;8.25;4.43;;;15.10;64.80;;;;;;2262043;56;20995;-71
2023/04/08 09:36:51;;;;;;;7.57;4.70;;;15.10;64.70;;;;;;2491229;54;21022;-68
2023/04/08 09:39:18;;;;;;;9.60;6.10;;;15.20;64.70;;;;;;2262422;55;20932;-70
2023/04/08 09:41:46;;;;;;;8.18;5.40;;;15.20;64.70;;;;;;2490448;54;20971;-70
2023/04/08 09:44:13;;;;;;;7.22;4.78;;;15.30;64.80;;;;;;2490452;54;20978;-70
2023/04/08 09:46:50;;;;;;;7.43;5.35;;;15.40;64.90;;;;;;2261618;56;21062;-70
2023/04/08 09:49:49;;;;;;;8.38;5.68;;;15.40;64.80;;;;;;2258929;56;20992;-70
2023/04/08 09:52:31;;;;;;;6.40;4.45;;;15.50;64.20;;;;;;2261757;56;20971;-70
2023/04/08 09:55:05;;;;;;;6.62;4.55;;;15.60;64.00;;;;;;2262330;56;21064;-70
2023/04/08 09:59:02;;;;;;;7.95;5.00;;;15.60;64.20;;;;;;2262174;56;20931;-69
2023/04/08 10:01:38;;;;;;;7.10;5.10;;;15.80;63.80;;;;;;2475356;55;21401;-71
2023/04/08 10:04:09;;;;;;;7.20;5.10;;;15.80;64.40;;;;;;2263320;56;20955;-72
2023/04/08 10:06:36;;;;;;;8.48;5.70;;;15.90;64.60;;;;;;2490675;54;20908;-71
2023/04/08 10:09:03;;;;;;;8.80;4.87;;;16.00;64.90;;;;;;2261961;56;20948;-71
2023/04/08 10:11:29;;;;;;;8.23;5.50;;;16.10;65.00;;;;;;2491067;54;20999;-71
2023/04/08 10:13:55;;;;;;;6.97;4.68;;;16.20;64.90;;;;;;2260924;56;20958;-72
2023/04/08 10:16:26;;;;;;;7.15;5.12;;;16.30;64.60;;;;;;2491067;54;21527;-69
2023/04/08 10:18:56;;;;;;;7.55;4.97;;;16.30;64.00;;;;;;2263205;56;21007;-70
2023/04/08 10:21:47;;;;;;;6.72;4.82;;;16.40;63.80;;;;;;2261858;56;20967;-72
2023/04/08 10:24:13;;;;;;;7.30;4.90;;;16.50;62.70;;;;;;2262555;56;21031;-72
2023/04/08 10:26:43;;;;;;;6.03;4.28;;;16.60;63.60;;;;;;2491383;54;20947;-69
2023/04/08 10:33:41;;;;;;;6.18;4.37;;;16.60;63.10;;;;;;2262136;56;21003;-71
2023/04/08 10:36:09;;;;;;;6.12;4.00;;;16.70;62.10;;;;;;2491217;54;20945;-69
2023/04/08 10:38:35;;;;;;;6.60;4.10;;;16.80;63.30;;;;;;2490925;54;21758;-76
2023/04/08 10:41:03;;;;;;;7.03;4.75;;;16.80;63.00;;;;;;2262752;56;20915;-70
2023/04/08 10:43:35;;;;;;;7.15;4.82;;;16.80;62.70;;;;;;2490922;54;20922;-73
2023/04/08 10:46:03;;;;;;;8.77;6.25;;;17.00;62.40;;;;;;2262851;56;20971;-71
2023/04/08 10:48:30;;;;;;;7.22;5.10;;;16.90;62.70;;;;;;2261874;56;20954;-70
2023/04/08 10:51:00;;;;;;;9.73;5.85;;;17.00;62.80;;;;;;2259312;56;22302;-71
2023/04/08 10:53:34;;;;;;;9.10;5.95;;;17.10;62.60;;;;;;2490505;54;21805;-73
2023/04/08 10:56:18;;;;;;;9.52;6.18;;;17.10;62.40;;;;;;2491141;54;21708;-71
2023/04/08 10:58:55;;;;;;;8.82;4.72;;;17.10;61.70;;;;;;2490872;54;21003;-71
2023/04/08 11:01:21;;;;;;;7.43;5.12;;;17.10;61.90;;;;;;2491405;54;20983;-71
2023/04/08 11:03:49;;;;;;;7.40;4.80;;;17.10;62.30;;;;;;2491235;54;20931;-72
2023/04/08 11:06:16;;;;;;;8.23;5.68;;;17.20;62.30;;;;;;2490956;54;21781;-72
2023/04/08 11:08:43;;;;;;;7.25;4.70;;;17.20;62.10;;;;;;2265516;56;21958;-71
2023/04/08 11:11:10;;;;;;;7.43;5.05;;;17.20;61.80;;;;;;2482063;54;21011;-70
2023/04/08 11:13:40;;;;;;;7.72;4.85;;;17.20;61.70;;;;;;2490188;54;20963;-69
2023/04/08 11:16:08;;;;;;;6.40;4.47;;;17.20;61.50;;;;;;2461301;55;22322;-71
2023/04/08 11:18:42;;;;;;;6.43;4.50;;;17.20;61.50;;;;;;2241389;56;22002;-70
2023/04/08 11:21:09;;;;;;;6.20;4.47;;;17.20;61.40;;;;;;2226486;56;20934;-72
2023/04/08 11:23:36;;;;;;;6.47;4.60;;;17.20;61.40;;;;;;2460971;55;20989;-69
2023/04/08 11:26:02;;;;;;;6.87;4.57;;;17.20;61.40;;;;;;2460564;55;21479;-70
2023/04/08 11:28:31;;;;;;;7.18;5.07;;;17.20;61.30;;;;;;2457057;55;20931;-69
2023/04/08 11:30:58;;;;;;;7.80;4.40;;;17.20;61.00;;;;;;2230828;56;20980;-69
2023/04/08 11:33:31;;;;;;;6.90;5.15;;;17.20;60.90;;;;;;2236417;56;21553;-71
2023/04/08 11:36:00;;;;;;;8.40;5.70;;;17.20;60.70;;;;;;2253608;56;20963;-70
2023/04/08 11:38:26;;;;;;;7.03;4.72;;;17.20;60.60;;;;;;2491563;55;21375;-70
2023/04/08 11:40:54;;;;;;;7.22;5.18;;;17.20;60.70;;;;;;2492129;55;21031;-68
2023/04/08 11:43:20;;;;;;;7.25;4.78;;;17.10;60.50;;;;;;2263150;56;20998;-69
2023/04/08 11:45:47;;;;;;;7.40;4.95;;;17.10;60.50;;;;;;2491737;55;21034;-71
2023/04/08 11:48:14;;;;;;;6.93;4.95;;;17.10;60.60;;;;;;2265942;56;21713;-70
2023/04/08 11:50:41;;;;;;;7.57;5.37;;;17.20;60.70;;;;;;2242138;56;20966;-69
2023/04/08 11:53:20;;;;;;;6.05;4.62;;;17.20;60.50;;;;;;2491806;55;20966;-69
2023/04/08 11:55:49;;;;;;;7.10;4.95;;;17.20;59.60;;;;;;2491850;55;20946;-69
2023/04/08 11:58:18;;;;;;;6.70;4.80;;;17.20;60.20;;;;;;2491321;55;21014;-69
2023/04/08 12:00:45;;;;;;;7.97;5.70;;;17.20;60.10;;;;;;2262997;56;20998;-69
2023/04/08 12:03:12;;;;;;;8.23;5.75;;;17.20;60.00;;;;;;2492420;55;21383;-69
2023/04/08 12:05:38;;;;;;;8.40;5.87;;;17.20;59.80;;;;;;2492060;55;21570;-68
2023/04/08 12:08:05;;;;;;;8.02;5.28;;;17.10;59.60;;;;;;2262661;56;20938;-69
2023/04/08 12:10:32;;;;;;;6.32;4.45;;;17.10;59.50;;;;;;2491303;55;20978;-70
2023/04/08 12:12:58;;;;;;;7.70;5.28;;;17.00;59.50;;;;;;2246392;56;22482;-68
2023/04/08 12:15:24;;;;;;;6.28;4.47;;;17.00;59.60;;;;;;2260992;56;21002;-69
2023/04/08 12:17:51;;;;;;;5.37;3.37;;;16.90;59.50;;;;;;2491735;55;21578;-70
2023/04/08 12:20:18;;;;;;;6.30;4.20;;;16.90;59.50;;;;;;2470852;55;21808;-69
2023/04/08 12:22:44;;;;;;;6.37;4.20;;;16.90;59.70;;;;;;2487367;55;20994;-69
2023/04/08 12:25:12;;;;;;;5.62;3.85;;;16.90;59.80;;;;;;2266356;56;20974;-69
2023/04/08 12:27:38;;;;;;;6.10;4.05;;;16.90;59.80;;;;;;2491611;55;20978;-69
2023/04/08 12:30:05;;;;;;;6.57;4.32;;;16.90;59.90;;;;;;2454528;55;20994;-69
2023/04/08 12:32:32;;;;;;;6.30;4.50;;;16.90;60.00;;;;;;2234550;55;20949;-69
2023/04/08 12:34:59;;;;;;;6.93;4.53;;;17.00;60.30;;;;;;2461264;55;20949;-71
2023/04/08 12:37:26;;;;;;;7.65;4.72;;;16.90;60.30;;;;;;2467576;55;21127;-68
2023/04/08 12:39:52;;;;;;;6.20;4.72;;;16.90;60.40;;;;;;2466923;55;20976;-69
2023/04/08 12:42:19;;;;;;;6.50;4.00;;;17.00;60.50;;;;;;2225602;55;20995;-69
2023/04/08 12:44:46;;;;;;;6.40;4.40;;;17.00;60.50;;;;;;2236986;55;20958;-70
2023/04/08 12:47:12;;;;;;;6.47;4.65;;;17.10;60.90;;;;;;2461592;55;21451;-70
2023/04/08 12:49:40;;;;;;;6.78;4.78;;;17.20;61.10;;;;;;2475752;55;20983;-69
2023/04/08 12:52:09;;;;;;;7.45;5.05;;;17.30;61.20;;;;;;2461304;55;20969;-69
2023/04/08 12:54:36;;;;;;;6.72;4.37;;;17.40;61.20;;;;;;2460745;55;21013;-71
2023/04/08 12:57:03;;;;;;;6.03;3.85;;;17.40;61.10;;;;;;2237225;55;20941;-69